Flight Information

DEPARTURE
BURBANK, CA
Elevation:
778
Runways:
8/26 - 5802x150 - ASPH-CONC-E
15/33 - 6886x150 - ASPH-CONC-E
ATIS:
135.125 818-843-6633
Clearance Delivery:
118
Ground:
123.9
Tower:
BURBANK TOWER 118.7 132.325 (Helicopters)
DESTINATION
ALBUQUERQUE, NM
Elevation:
5354
TPA:
6354 (est.)
Runways:
3/21 - 10000x150 - CONC-G
8/26 - 13793x150 - CONC-G
12/30 - 6000x150 - CONC-G
ATIS:
118 505-856-4928
Tower:
ALBUQUERQUE TOWER 120.3
Ground:
121.9


582 NM82° True-14° Var67° HDG

Flight Plan:
(click to file on line)

1. Type
2. Aircraft Identification
3. Aircraft Type / Special Equipment
4. True Airspeed
kts
5. Departure Airport
(ICAO code)
6. Arriving Airport
(ICAO code)
7. Cruising Altitude
ft
8. Alternate Airport
(ICAO code)
9. Route of Flight
10. Remarks


00:00:00 Departure ATIS: Destination ATIS:

Clearance Limit:
Route:
Altitude: Expect in minutes
Frequency:
Transponder: (7500 Hijack / 7600 Lost Comms / 7700 Emergency)


KBUR 181153Z 17003KT 10SM CLR 21/13 A2992 RMK AO2 SLP117 T02110133 10228 20211 58004
Time: 2022-08-18T11:53:00Z
1660826991
Winds: 170 @ 3 kts
Visibility: 10.0 sm
Clouds (AGL): CLR
Temperature: 21.1 C
Dew Point: 13.3 C
Pressure: 29.920275 in Hgbr

KABQ 181152Z 10011KT 10SM FEW100 FEW130 20/14 A3025 RMK AO2 SLP158 T02000139 10228 20194 55002
Time: 2022-08-18T11:52:00Z
1660826991
Winds: 100 @ 11 kts
Visibility: 10.0 sm
Clouds (AGL): FEW 10000
FEW 13000
Temperature: 20.0 C
Dew Point: 13.9 C
Pressure: 30.250984 in Hgbr


Notes:

Data extracted from FAA Digital Chart Supplement. Effective: 0901Z Thursday, 27 JAN 2022 to 0900z Thursday, 24 MAR 2022
Current ATIS data is provided courtisy of PilotEdge.